Time;durP1;ratioP1;P1;durP2;ratioP2;P2;SDS_P1;SDS_P2;PMS_P1;PMS_P2;Temp;Humidity;BMP_temperature;BMP_pressure;BME280_temperature;BME280_humidity;BME280_pressure;Samples;Min_cycle;Max_cycle;Signal;HPM_P1;HPM_P2
2023/11/30 06:11:58;;;;;;;8.07;4.70;;;;;;;;;;7602967;19;20780;-73
2023/11/30 06:14:30;;;;;;;8.23;4.80;;;;;;;;;;7611033;19;20021;-72
2023/11/30 06:17:03;;;;;;;8.82;5.75;;;;;;;;;;7616701;19;20490;-72
2023/11/30 06:19:36;;;;;;;7.35;5.03;;;;;;;;;;7599500;19;21181;-72
2023/11/30 06:22:09;;;;;;;10.98;5.97;;;;;;;;;;7636812;19;20078;-72
2023/11/30 06:24:42;;;;;;;9.98;5.70;;;;;;;;;;7625167;19;20029;-73
2023/11/30 06:27:14;;;;;;;8.03;5.43;;;;;;;;;;7612890;19;20022;-74
2023/11/30 06:29:47;;;;;;;12.90;6.43;;;;;;;;;;7591155;19;20040;-72
2023/11/30 06:32:21;;;;;;;8.75;5.50;;;;;;;;;;7571184;19;20519;-72
2023/11/30 06:34:54;;;;;;;9.55;6.15;;;;;;;;;;7603191;19;21264;-73
2023/11/30 06:37:26;;;;;;;7.35;4.72;;;;;;;;;;7612983;19;20018;-72
2023/11/30 06:39:59;;;;;;;9.17;5.27;;;;;;;;;;7637455;19;20458;-73
2023/11/30 06:42:32;;;;;;;9.40;5.60;;;;;;;;;;7633444;19;21003;-74
2023/11/30 06:45:04;;;;;;;11.33;5.00;;;;;;;;;;7636342;19;20019;-73
2023/11/30 06:47:38;;;;;;;9.52;4.90;;;;;;;;;;7643143;19;20282;-74
2023/11/30 06:50:12;;;;;;;7.75;5.10;;;;;;;;;;7630677;19;20631;-74
2023/11/30 06:52:45;;;;;;;8.23;4.53;;;;;;;;;;7600179;19;20026;-72
2023/11/30 06:55:17;;;;;;;9.35;4.53;;;;;;;;;;7623408;19;21312;-75
2023/11/30 06:57:50;;;;;;;6.47;4.22;;;;;;;;;;7611657;19;20039;-75
2023/11/30 07:00:23;;;;;;;8.33;4.63;;;;;;;;;;7639850;19;20022;-74
2023/11/30 07:02:55;;;;;;;8.17;4.33;;;;;;;;;;7616818;19;20010;-74
2023/11/30 07:05:28;;;;;;;7.20;4.57;;;;;;;;;;7623317;19;20274;-74
2023/11/30 07:08:01;;;;;;;7.85;3.45;;;;;;;;;;7614097;19;20025;-73
2023/11/30 07:10:34;;;;;;;6.73;4.43;;;;;;;;;;7613187;19;20010;-73
2023/11/30 07:13:07;;;;;;;6.35;3.75;;;;;;;;;;7620075;19;20516;-72
2023/11/30 07:15:40;;;;;;;10.63;4.18;;;;;;;;;;7636899;19;20018;-74
2023/11/30 07:18:13;;;;;;;7.40;4.47;;;;;;;;;;7631134;19;20011;-73
2023/11/30 07:20:47;;;;;;;6.97;3.97;;;;;;;;;;7634959;19;20026;-75
2023/11/30 07:23:19;;;;;;;5.82;4.53;;;;;;;;;;7602779;19;20022;-73
2023/11/30 07:25:52;;;;;;;6.88;4.47;;;;;;;;;;7599518;19;21068;-72
2023/11/30 07:28:26;;;;;;;10.45;4.93;;;;;;;;;;7594700;19;20051;-74
2023/11/30 07:30:59;;;;;;;9.05;4.35;;;;;;;;;;7603178;19;20030;-73
2023/11/30 07:33:31;;;;;;;10.77;4.33;;;;;;;;;;7599803;19;20019;-72
2023/11/30 07:36:07;;;;;;;9.25;4.20;;;;;;;;;;7609362;19;20729;-72
2023/11/30 07:38:42;;;;;;;7.03;4.50;;;;;;;;;;7604845;19;20015;-73
2023/11/30 07:41:16;;;;;;;7.07;4.10;;;;;;;;;;7599373;19;20481;-74
2023/11/30 07:43:49;;;;;;;9.35;4.85;;;;;;;;;;7608568;19;20025;-73
2023/11/30 07:46:22;;;;;;;20.33;9.03;;;;;;;;;;7611274;19;20098;-74
2023/11/30 07:48:55;;;;;;;22.92;10.15;;;;;;;;;;7602296;19;20018;-73
2023/11/30 07:51:28;;;;;;;17.83;9.18;;;;;;;;;;7614667;19;20015;-72
2023/11/30 07:54:00;;;;;;;18.80;9.25;;;;;;;;;;7611087;19;21035;-73
2023/11/30 07:56:33;;;;;;;21.65;9.10;;;;;;;;;;7607741;19;20046;-73
2023/11/30 07:59:06;;;;;;;12.43;6.67;;;;;;;;;;7589371;19;20061;-73
2023/11/30 08:01:40;;;;;;;10.20;6.00;;;;;;;;;;7607405;19;20116;-74
2023/11/30 08:04:12;;;;;;;10.40;6.22;;;;;;;;;;7599087;19;20022;-73
2023/11/30 08:06:46;;;;;;;10.00;5.13;;;;;;;;;;7600861;19;20018;-73
2023/11/30 08:09:20;;;;;;;10.43;6.03;;;;;;;;;;7609741;19;20560;-72
2023/11/30 08:11:52;;;;;;;7.80;4.82;;;;;;;;;;7599041;19;20026;-73
2023/11/30 08:14:25;;;;;;;8.65;5.30;;;;;;;;;;7592878;19;20010;-74
2023/11/30 15:42:58;;;;;;;34.45;19.20;;;;;;;;;;7609949;19;20371;-73
2023/11/30 15:45:31;;;;;;;31.98;18.67;;;;;;;;;;7612593;19;20014;-73
2023/11/30 15:48:05;;;;;;;37.08;19.38;;;;;;;;;;7623368;19;20017;-73
2023/11/30 15:50:39;;;;;;;37.20;19.25;;;;;;;;;;7600268;19;20317;-73
2023/11/30 15:53:12;;;;;;;41.67;19.15;;;;;;;;;;7627840;19;20018;-73
2023/11/30 15:55:45;;;;;;;36.87;19.17;;;;;;;;;;7622660;19;20018;-73
2023/11/30 15:58:19;;;;;;;40.35;20.45;;;;;;;;;;7629452;19;20278;-73
2023/11/30 16:00:54;;;;;;;37.53;20.48;;;;;;;;;;7600321;19;20018;-72
2023/11/30 16:03:27;;;;;;;38.17;20.00;;;;;;;;;;7601810;19;20530;-74
2023/11/30 16:06:00;;;;;;;32.95;18.90;;;;;;;;;;7607878;19;20082;-73
2023/11/30 16:08:33;;;;;;;33.60;19.03;;;;;;;;;;7602126;19;20682;-73
2023/11/30 16:11:11;;;;;;;37.80;20.33;;;;;;;;;;7601903;19;20387;-73
2023/11/30 16:13:44;;;;;;;38.92;19.80;;;;;;;;;;7591297;19;20010;-73
2023/11/30 16:16:17;;;;;;;33.73;18.07;;;;;;;;;;7602129;19;20038;-73
2023/11/30 16:18:50;;;;;;;37.60;20.83;;;;;;;;;;7602964;19;20024;-72
2023/11/30 16:21:23;;;;;;;42.45;23.67;;;;;;;;;;7568895;19;20018;-72
2023/11/30 16:24:00;;;;;;;37.80;21.42;;;;;;;;;;7612878;19;20078;-73
2023/11/30 16:26:33;;;;;;;39.75;21.42;;;;;;;;;;7614974;19;20043;-72
2023/11/30 16:29:06;;;;;;;41.60;21.88;;;;;;;;;;7617901;19;20012;-72
2023/11/30 16:31:38;;;;;;;40.33;21.67;;;;;;;;;;7627381;19;20018;-74
2023/11/30 16:34:11;;;;;;;36.37;21.70;;;;;;;;;;7618243;19;20037;-72
2023/11/30 16:36:45;;;;;;;37.45;20.33;;;;;;;;;;7600775;19;21371;-72
2023/11/30 16:39:18;;;;;;;40.05;20.98;;;;;;;;;;7621735;19;20697;-73
2023/11/30 16:41:50;;;;;;;35.70;19.43;;;;;;;;;;7605144;19;20030;-71
2023/11/30 16:44:23;;;;;;;37.30;20.95;;;;;;;;;;7620758;19;20095;-71
2023/11/30 16:46:56;;;;;;;27.45;14.85;;;;;;;;;;7623017;19;20015;-72
2023/11/30 16:49:29;;;;;;;39.73;19.93;;;;;;;;;;7617370;19;20901;-72
2023/11/30 16:52:02;;;;;;;;;;;;;;;;;;7626998;19;20282;-72
2023/11/30 16:54:35;;;;;;;45.13;23.98;;;;;;;;;;7595613;19;19949;-72
2023/11/30 16:57:07;;;;;;;40.80;22.50;;;;;;;;;;7589198;19;20014;-72
2023/11/30 16:59:40;;;;;;;35.45;20.85;;;;;;;;;;7582503;19;20074;-72
2023/11/30 17:02:13;;;;;;;45.80;23.70;;;;;;;;;;7589619;19;20052;-72
2023/11/30 17:04:46;;;;;;;44.40;24.33;;;;;;;;;;7581131;19;20661;-72
2023/11/30 17:07:20;;;;;;;49.17;25.23;;;;;;;;;;7586374;19;20289;-72
2023/11/30 17:09:53;;;;;;;54.78;26.90;;;;;;;;;;7581438;19;20015;-72
2023/11/30 17:12:26;;;;;;;47.05;26.38;;;;;;;;;;7570702;19;20455;-72
2023/11/30 17:14:59;;;;;;;45.25;25.17;;;;;;;;;;7575814;19;20018;-73
2023/11/30 17:17:31;;;;;;;42.13;24.37;;;;;;;;;;7571681;19;20110;-72
2023/11/30 17:20:05;;;;;;;44.90;24.27;;;;;;;;;;7582173;19;20027;-72
2023/11/30 17:22:39;;;;;;;51.15;28.08;;;;;;;;;;7559640;19;20856;-71
2023/11/30 17:25:12;;;;;;;41.28;23.55;;;;;;;;;;7550900;19;20957;-72
2023/11/30 17:27:45;;;;;;;47.13;24.03;;;;;;;;;;7550412;19;20113;-73
2023/11/30 17:30:18;;;;;;;40.92;22.33;;;;;;;;;;7573354;19;20014;-72
2023/11/30 17:32:51;;;;;;;;;;;;;;;;;;7564803;19;20011;-72
2023/11/30 17:35:24;;;;;;;38.78;20.15;;;;;;;;;;7571806;19;19919;-73
2023/11/30 17:37:57;;;;;;;37.58;21.77;;;;;;;;;;7576561;19;20014;-71
2023/11/30 17:40:30;;;;;;;37.33;21.10;;;;;;;;;;7573332;19;20346;-71
2023/11/30 17:43:03;;;;;;;41.88;24.23;;;;;;;;;;7558826;19;20018;-72
2023/11/30 17:45:36;;;;;;;39.60;22.55;;;;;;;;;;7571307;19;20093;-72
2023/11/30 17:48:09;;;;;;;50.40;25.50;;;;;;;;;;7582014;19;20018;-72
2023/11/30 17:50:42;;;;;;;42.03;22.03;;;;;;;;;;7568119;19;20412;-71
2023/11/30 17:53:17;;;;;;;40.42;23.55;;;;;;;;;;7580689;19;20018;-72
2023/11/30 17:55:49;;;;;;;43.13;23.42;;;;;;;;;;7585676;19;20022;-72
2023/11/30 17:58:22;;;;;;;44.63;25.13;;;;;;;;;;7573776;19;20015;-72
2023/11/30 18:00:56;;;;;;;47.77;23.60;;;;;;;;;;7588961;19;20038;-72
2023/11/30 18:03:29;;;;;;;39.20;21.13;;;;;;;;;;7585055;19;20014;-72
2023/11/30 18:06:03;;;;;;;41.37;22.73;;;;;;;;;;7560157;19;20105;-72
2023/11/30 18:08:38;;;;;;;41.72;23.23;;;;;;;;;;7575606;19;21171;-72
2023/11/30 18:11:10;;;;;;;40.35;22.30;;;;;;;;;;7580253;19;20022;-72
2023/11/30 18:13:44;;;;;;;;;;;;;;;;;;7577252;19;20491;-71
2023/11/30 18:16:16;;;;;;;50.70;24.45;;;;;;;;;;7589673;19;19922;-72
2023/11/30 18:18:49;;;;;;;45.92;23.55;;;;;;;;;;7581736;19;20048;-70
2023/11/30 18:21:22;;;;;;;44.53;24.00;;;;;;;;;;7580212;19;20035;-74
2023/11/30 18:23:55;;;;;;;47.83;25.00;;;;;;;;;;7568714;19;20035;-70
2023/11/30 18:26:27;;;;;;;53.45;26.90;;;;;;;;;;7583398;19;20022;-73
2023/11/30 18:29:00;;;;;;;51.35;26.27;;;;;;;;;;7585208;19;20014;-73
2023/11/30 18:31:33;;;;;;;48.13;26.10;;;;;;;;;;7569766;19;20857;-73
2023/11/30 18:34:06;;;;;;;55.47;28.77;;;;;;;;;;7584623;19;20056;-73
2023/11/30 18:36:39;;;;;;;54.73;28.40;;;;;;;;;;7576310;19;20078;-73
2023/11/30 18:39:15;;;;;;;63.47;32.08;;;;;;;;;;7580614;19;20021;-73
2023/11/30 18:41:48;;;;;;;49.67;27.42;;;;;;;;;;7578016;19;20022;-74
2023/11/30 18:44:21;;;;;;;52.73;29.13;;;;;;;;;;7576370;19;20397;-72
2023/11/30 18:46:54;;;;;;;53.67;27.63;;;;;;;;;;7573256;19;20014;-72
2023/11/30 18:49:27;;;;;;;53.35;27.70;;;;;;;;;;7573889;19;20459;-72
2023/11/30 18:51:59;;;;;;;62.90;31.80;;;;;;;;;;7585064;19;20517;-72
2023/11/30 18:54:33;;;;;;;59.75;31.55;;;;;;;;;;7584822;19;20378;-71
2023/11/30 18:57:05;;;;;;;63.85;31.88;;;;;;;;;;7576752;19;21019;-73
2023/11/30 18:59:38;;;;;;;60.00;30.88;;;;;;;;;;7575820;19;20018;-71
2023/11/30 19:02:11;;;;;;;72.00;36.97;;;;;;;;;;7581275;19;20030;-72
2023/11/30 19:04:44;;;;;;;55.45;30.80;;;;;;;;;;7558010;19;20018;-72
2023/11/30 19:07:17;;;;;;;65.95;33.22;;;;;;;;;;7575112;19;20072;-72
2023/11/30 19:09:53;;;;;;;56.63;32.35;;;;;;;;;;7595081;19;20506;-69
2023/11/30 19:12:26;;;;;;;52.63;31.23;;;;;;;;;;7580245;19;20024;-70
2023/11/30 19:14:59;;;;;;;61.55;34.83;;;;;;;;;;7579811;19;20035;-72
2023/11/30 19:17:31;;;;;;;64.07;35.67;;;;;;;;;;7591254;19;20042;-73
2023/11/30 19:20:06;;;;;;;64.47;35.88;;;;;;;;;;7575034;19;20040;-73
2023/11/30 19:22:39;;;;;;;56.72;30.88;;;;;;;;;;7555783;19;20010;-73
2023/11/30 19:25:12;;;;;;;65.55;33.92;;;;;;;;;;7548724;19;20066;-74
2023/11/30 19:27:45;;;;;;;59.10;33.40;;;;;;;;;;7574857;19;20029;-73
2023/11/30 19:30:18;;;;;;;71.00;37.70;;;;;;;;;;7577272;19;20649;-73
2023/11/30 19:32:51;;;;;;;70.17;36.90;;;;;;;;;;7559791;19;20006;-70
2023/11/30 19:35:24;;;;;;;;;;;;;;;;;;7558364;19;21232;-73
2023/11/30 19:37:56;;;;;;;60.80;32.75;;;;;;;;;;7566780;19;20352;-71
2023/11/30 19:40:29;;;;;;;57.47;32.05;;;;;;;;;;7553776;19;20014;-71
2023/11/30 19:43:02;;;;;;;54.67;31.25;;;;;;;;;;7562997;19;20025;-71
2023/11/30 19:45:35;;;;;;;60.23;32.37;;;;;;;;;;7553819;19;20760;-71
2023/11/30 19:48:07;;;;;;;71.30;34.17;;;;;;;;;;7567163;19;20271;-71
2023/11/30 19:50:42;;;;;;;57.95;30.73;;;;;;;;;;7575061;19;20018;-71
2023/11/30 19:53:15;;;;;;;49.42;27.52;;;;;;;;;;7568056;19;20018;-71
2023/11/30 19:55:48;;;;;;;53.35;29.08;;;;;;;;;;7571226;19;20053;-71
2023/11/30 19:58:21;;;;;;;;;;;;;;;;;;7561195;19;20611;-71
2023/11/30 20:00:54;;;;;;;59.15;31.05;;;;;;;;;;7549916;19;19925;-71
2023/11/30 20:03:27;;;;;;;70.45;34.17;;;;;;;;;;7570400;19;20019;-71
2023/11/30 20:06:00;;;;;;;63.47;31.83;;;;;;;;;;7558569;19;20018;-72
2023/11/30 20:08:33;;;;;;;55.15;30.17;;;;;;;;;;7569400;19;21620;-71
2023/11/30 20:11:06;;;;;;;57.97;29.23;;;;;;;;;;7567747;19;20837;-71
2023/11/30 20:13:39;;;;;;;50.90;28.48;;;;;;;;;;7562527;19;21153;-71
2023/11/30 20:16:12;;;;;;;;;;;;;;;;;;7558683;19;20503;-71
2023/11/30 20:18:45;;;;;;;57.60;27.73;;;;;;;;;;7571322;19;19922;-71
2023/11/30 20:21:20;;;;;;;52.80;26.88;;;;;;;;;;7567901;19;20022;-71
2023/11/30 20:23:54;;;;;;;48.08;26.27;;;;;;;;;;7548027;19;21214;-70
2023/11/30 20:26:27;;;;;;;65.22;32.35;;;;;;;;;;7579945;19;20026;-71
2023/11/30 20:28:59;;;;;;;56.30;30.05;;;;;;;;;;7575937;19;20025;-71
2023/11/30 20:31:33;;;;;;;;;;;;;;;;;;7562793;19;20895;-71
2023/11/30 20:34:06;;;;;;;52.85;28.33;;;;;;;;;;7561983;19;19922;-74
2023/11/30 20:36:39;;;;;;;55.65;29.45;;;;;;;;;;7584650;19;20923;-73
2023/11/30 20:39:12;;;;;;;54.10;27.73;;;;;;;;;;7574886;19;20572;-74
2023/11/30 20:41:45;;;;;;;52.95;28.50;;;;;;;;;;7576152;19;20124;-74
2023/11/30 20:44:17;;;;;;;45.47;26.40;;;;;;;;;;7567020;19;20022;-73
2023/11/30 20:46:50;;;;;;;53.63;27.23;;;;;;;;;;7581180;19;20022;-73
2023/11/30 20:49:24;;;;;;;;;;;;;;;;;;7583257;19;20021;-72
2023/11/30 20:51:56;;;;;;;50.50;26.35;;;;;;;;;;7584506;19;19956;-73
2023/11/30 20:54:30;;;;;;;54.25;29.00;;;;;;;;;;7587809;19;20026;-71
2023/11/30 20:57:04;;;;;;;47.03;25.92;;;;;;;;;;7566343;19;20645;-71
2023/11/30 20:59:37;;;;;;;45.42;25.80;;;;;;;;;;7552944;19;20033;-70
2023/11/30 21:02:13;;;;;;;56.90;28.83;;;;;;;;;;7552595;19;20018;-71
2023/11/30 21:04:46;;;;;;;55.22;29.13;;;;;;;;;;7564940;19;20020;-70
2023/11/30 21:07:18;;;;;;;45.33;25.53;;;;;;;;;;7570852;19;20014;-71
2023/11/30 21:09:51;;;;;;;63.03;29.77;;;;;;;;;;7562330;19;20729;-72
2023/11/30 21:12:24;;;;;;;53.75;28.50;;;;;;;;;;7565000;19;20018;-74
2023/11/30 21:14:56;;;;;;;53.17;29.53;;;;;;;;;;7563539;19;20007;-73
2023/11/30 21:17:29;;;;;;;54.23;26.97;;;;;;;;;;7562543;19;20007;-73
2023/11/30 21:20:03;;;;;;;63.17;30.25;;;;;;;;;;7564347;19;20812;-72
2023/11/30 21:22:36;;;;;;;46.22;26.30;;;;;;;;;;7562993;19;20352;-72
2023/11/30 21:25:10;;;;;;;45.60;26.17;;;;;;;;;;7558136;19;20022;-72
2023/11/30 21:27:42;;;;;;;59.65;30.70;;;;;;;;;;7568951;19;20581;-72
2023/11/30 21:30:16;;;;;;;58.92;28.60;;;;;;;;;;7562351;19;20034;-72
2023/11/30 21:32:49;;;;;;;;;;;;;;;;;;7582270;19;20564;-73
2023/11/30 21:35:21;;;;;;;52.40;28.10;;;;;;;;;;7568597;19;19919;-72
2023/11/30 21:37:54;;;;;;;53.83;28.60;;;;;;;;;;7568879;19;20018;-72
2023/11/30 21:40:29;;;;;;;61.38;31.30;;;;;;;;;;7572132;19;20754;-73
2023/11/30 21:43:03;;;;;;;50.72;27.45;;;;;;;;;;7532036;19;20041;-72
2023/11/30 21:45:35;;;;;;;46.42;25.27;;;;;;;;;;7563897;19;20018;-72
2023/11/30 21:48:09;;;;;;;49.37;26.63;;;;;;;;;;7536878;19;21099;-72
2023/11/30 21:50:42;;;;;;;43.00;24.90;;;;;;;;;;7560840;19;20023;-72
2023/11/30 21:53:15;;;;;;;;;;;;;;;;;;7541972;19;20764;-71
2023/11/30 21:55:48;;;;;;;46.58;25.40;;;;;;;;;;7549317;19;19914;-74
2023/11/30 21:58:21;;;;;;;46.60;26.67;;;;;;;;;;7576568;19;20357;-73
2023/11/30 22:00:54;;;;;;;41.60;24.73;;;;;;;;;;7568133;19;20720;-74
2023/11/30 22:03:27;;;;;;;44.33;24.67;;;;;;;;;;7568403;19;20014;-74
2023/11/30 22:06:00;;;;;;;42.15;24.95;;;;;;;;;;7558836;19;20507;-73
2023/11/30 22:08:32;;;;;;;49.55;27.13;;;;;;;;;;7573797;19;20018;-72
2023/11/30 22:11:06;;;;;;;47.38;27.63;;;;;;;;;;7577112;19;20098;-72
2023/11/30 22:13:38;;;;;;;45.10;24.63;;;;;;;;;;7569865;19;21777;-73
